createdAt,value
2023-04-04T00:01:15.752Z,2.45
2023-04-04T00:03:42.339Z,2.40
2023-04-04T00:06:08.772Z,2.72
2023-04-04T00:08:35.264Z,2.40
2023-04-04T00:13:28.588Z,2.55
2023-04-04T00:15:55.179Z,3.95
2023-04-04T00:18:21.592Z,2.50
2023-04-04T00:20:47.892Z,2.60
2023-04-04T00:23:14.198Z,2.75
2023-04-04T00:25:40.617Z,2.92
2023-04-04T00:30:34.855Z,2.83
2023-04-04T00:33:01.299Z,2.45
2023-04-04T00:35:27.688Z,3.00
2023-04-04T00:37:53.990Z,2.80
2023-04-04T00:40:20.405Z,2.63
2023-04-04T00:45:13.088Z,2.58
2023-04-04T00:50:07.372Z,3.20
2023-04-04T00:52:33.866Z,3.15
2023-04-04T00:57:28.474Z,3.05
2023-04-04T00:59:56.555Z,2.80
2023-04-04T01:02:24.624Z,2.75
2023-04-04T01:04:51.562Z,2.80
2023-04-04T01:07:19.318Z,2.80
2023-04-04T01:09:45.618Z,2.65
2023-04-04T01:12:11.996Z,2.80
2023-04-04T01:14:38.355Z,2.60
2023-04-04T01:17:05.815Z,2.72
2023-04-04T01:19:36.612Z,2.80
2023-04-04T01:22:05.245Z,3.10
2023-04-04T01:24:34.658Z,2.80
2023-04-04T01:27:01.022Z,2.70
2023-04-04T01:29:27.582Z,2.15
2023-04-04T01:32:03.268Z,2.60
2023-04-04T01:34:37.941Z,3.03
2023-04-04T01:37:11.331Z,2.67
2023-04-04T01:39:50.289Z,2.80
2023-04-04T01:42:16.785Z,2.42
2023-04-04T01:47:12.870Z,2.70
2023-04-04T01:49:39.176Z,2.80
2023-04-04T01:52:05.564Z,2.55
2023-04-04T01:54:32.044Z,3.08
2023-04-04T01:59:24.647Z,2.97
2023-04-04T02:01:51.109Z,3.10
2023-04-04T02:06:43.854Z,2.90
2023-04-04T02:09:10.150Z,2.80
2023-04-04T02:11:36.496Z,2.85
2023-04-04T02:14:02.990Z,3.15
2023-04-04T02:18:55.661Z,2.10
2023-04-04T02:21:22.570Z,2.50
2023-04-04T02:23:48.866Z,2.88
2023-04-04T02:26:15.199Z,2.60
2023-04-04T02:28:41.530Z,2.60
2023-04-04T02:31:07.880Z,2.65
2023-04-04T02:33:34.222Z,2.47
2023-04-04T02:36:01.176Z,2.65
2023-04-04T02:38:27.754Z,2.45
2023-04-04T02:40:54.195Z,2.65
2023-04-04T02:43:20.712Z,2.50
2023-04-04T02:48:16.071Z,2.53
2023-04-04T02:50:42.860Z,2.70
2023-04-04T02:53:09.435Z,2.65
2023-04-04T02:55:35.783Z,2.92
2023-04-04T02:58:02.135Z,2.83
2023-04-04T03:00:28.746Z,2.88
2023-04-04T03:02:55.872Z,2.72
2023-04-04T03:05:26.311Z,2.85
2023-04-04T03:07:59.734Z,3.08
2023-04-04T03:10:27.916Z,2.70
2023-04-04T03:12:54.277Z,2.55
2023-04-04T03:15:20.741Z,3.33
2023-04-04T03:17:47.394Z,2.90
2023-04-04T03:20:14.525Z,2.50
2023-04-04T03:22:41.542Z,2.70
2023-04-04T03:25:08.622Z,3.03
2023-04-04T03:27:35.001Z,2.95
2023-04-04T03:30:01.374Z,3.13
2023-04-04T03:32:27.779Z,2.75
2023-04-04T03:34:54.274Z,2.80
2023-04-04T03:39:46.936Z,2.58
2023-04-04T03:42:13.296Z,3.05
2023-04-04T03:44:40.719Z,2.60
2023-04-04T03:47:07.101Z,2.60
2023-04-04T03:49:34.357Z,2.80
2023-04-04T03:52:00.791Z,2.72
2023-04-04T03:54:28.204Z,2.65
2023-04-04T03:56:54.904Z,2.60
2023-04-04T03:59:21.333Z,3.10
2023-04-04T04:01:47.900Z,2.92
2023-04-04T04:06:40.978Z,2.75
2023-04-04T04:09:07.384Z,3.60
2023-04-04T04:11:34.071Z,3.08
2023-04-04T04:14:00.556Z,3.33
2023-04-04T04:16:27.161Z,3.20
2023-04-04T04:18:53.610Z,4.03
2023-04-04T04:21:20.029Z,3.33
2023-04-04T04:23:46.401Z,3.30
2023-04-04T04:26:12.806Z,3.92
2023-04-04T04:28:39.208Z,3.10
2023-04-04T04:31:09.923Z,3.80
2023-04-04T04:33:36.343Z,3.58
2023-04-04T04:36:04.557Z,3.47
2023-04-04T04:38:31.428Z,3.08
2023-04-04T04:40:57.879Z,3.50
2023-04-04T04:43:24.294Z,3.50
2023-04-04T04:45:50.644Z,3.80
2023-04-04T04:48:17.861Z,3.47
2023-04-04T04:50:48.142Z,3.20
2023-04-04T04:53:15.266Z,3.33
2023-04-04T04:55:41.660Z,3.28
2023-04-04T04:58:08.058Z,3.60
2023-04-04T05:00:34.600Z,3.13
2023-04-04T05:03:01.065Z,3.17
2023-04-04T05:05:28.116Z,3.47
2023-04-04T05:07:54.449Z,3.13
2023-04-04T05:10:20.822Z,3.13
2023-04-04T05:12:47.160Z,3.17
2023-04-04T05:15:13.658Z,3.03
2023-04-04T05:20:07.079Z,3.50
2023-04-04T05:22:33.703Z,3.20
2023-04-04T05:25:00.112Z,3.33
2023-04-04T05:27:26.470Z,4.22
2023-04-04T05:29:52.813Z,3.45
2023-04-04T05:32:19.168Z,2.63
2023-04-04T05:34:45.559Z,2.95
2023-04-04T05:37:11.914Z,3.10
2023-04-04T05:39:38.254Z,3.17
2023-04-04T05:42:04.831Z,3.25
2023-04-04T05:44:31.173Z,2.90
2023-04-04T05:46:57.519Z,3.17
2023-04-04T05:49:23.958Z,3.20
2023-04-04T05:54:16.582Z,3.17
2023-04-04T05:59:09.294Z,3.15
2023-04-04T06:01:35.693Z,3.03
2023-04-04T06:04:02.050Z,3.15
2023-04-04T06:06:28.430Z,3.20
2023-04-04T06:08:54.818Z,3.28
2023-04-04T06:11:21.201Z,3.05
2023-04-04T06:13:47.588Z,3.28
2023-04-04T06:16:14.155Z,3.65
2023-04-04T06:18:40.552Z,3.83
2023-04-04T06:21:06.915Z,4.10
2023-04-04T06:23:33.371Z,4.22
2023-04-04T06:25:59.742Z,4.10
2023-04-04T06:28:26.542Z,4.38
2023-04-04T06:30:52.873Z,4.45
2023-04-04T06:33:19.202Z,4.65
2023-04-04T06:35:45.607Z,5.45
2023-04-04T06:38:12.633Z,5.35
2023-04-04T06:40:39.219Z,5.85
2023-04-04T06:43:05.705Z,4.60
2023-04-04T06:45:33.672Z,5.15
2023-04-04T06:48:00.025Z,4.55
2023-04-04T06:50:26.430Z,4.85
2023-04-04T06:52:52.887Z,4.57
2023-04-04T06:55:19.279Z,4.63
2023-04-04T06:57:45.592Z,4.90
2023-04-04T07:00:12.580Z,4.43
2023-04-04T07:02:39.191Z,4.82
2023-04-04T07:05:06.213Z,4.85
2023-04-04T07:07:32.510Z,4.45
2023-04-04T07:09:58.902Z,4.00
2023-04-04T07:12:25.273Z,3.92
2023-04-04T07:14:51.702Z,4.47
2023-04-04T07:17:24.664Z,4.45
2023-04-04T07:19:51.385Z,4.13
2023-04-04T07:22:17.962Z,4.50
2023-04-04T07:24:44.376Z,4.43
2023-04-04T07:27:10.759Z,4.00
2023-04-04T07:29:37.149Z,4.60
2023-04-04T07:32:03.511Z,3.95
2023-04-04T07:34:29.890Z,4.20
2023-04-04T07:36:56.250Z,3.92
2023-04-04T07:39:22.629Z,4.10
2023-04-04T07:41:48.968Z,3.83
2023-04-04T07:44:15.293Z,4.15
2023-04-04T07:46:41.727Z,3.58
2023-04-04T07:49:08.065Z,3.78
2023-04-04T07:51:34.483Z,3.70
2023-04-04T07:54:00.894Z,3.50
2023-04-04T07:56:27.284Z,3.67
2023-04-04T07:58:53.644Z,2.97
2023-04-04T08:01:20.288Z,3.40
2023-04-04T08:03:46.939Z,3.30
2023-04-04T08:06:13.406Z,3.42
2023-04-04T08:08:39.759Z,3.60
2023-04-04T08:11:06.092Z,3.60
2023-04-04T08:13:32.509Z,3.63
2023-04-04T08:15:58.853Z,3.63
2023-04-04T08:18:25.280Z,3.47
2023-04-04T08:20:51.881Z,3.13
2023-04-04T08:23:18.270Z,3.80
2023-04-04T08:25:46.624Z,3.20
2023-04-04T08:28:12.958Z,3.05
2023-04-04T08:30:39.561Z,3.10
2023-04-04T08:33:06.625Z,3.03
2023-04-04T08:35:33.124Z,3.15
2023-04-04T08:38:01.589Z,3.03
2023-04-04T08:40:27.991Z,2.88
2023-04-04T08:42:54.427Z,3.15
2023-04-04T08:45:21.828Z,2.58
2023-04-04T08:47:54.060Z,2.70
2023-04-04T08:50:20.658Z,2.90
2023-04-04T08:52:47.533Z,2.90
2023-04-04T08:55:14.536Z,2.90
2023-04-04T08:57:40.900Z,2.70
2023-04-04T09:00:08.715Z,2.40
2023-04-04T09:02:47.675Z,2.88
2023-04-04T09:05:14.164Z,2.42
2023-04-04T09:07:40.857Z,2.22
2023-04-04T09:10:09.195Z,2.08
2023-04-04T09:12:37.549Z,2.20
2023-04-04T09:15:04.274Z,2.10
2023-04-04T09:17:30.633Z,2.20
2023-04-04T09:20:01.543Z,2.08
2023-04-04T09:22:27.898Z,2.00
2023-04-04T09:24:54.253Z,2.00
2023-04-04T09:27:21.060Z,2.42
2023-04-04T09:29:47.477Z,1.73
2023-04-04T09:32:15.157Z,2.10
2023-04-04T09:34:42.480Z,2.08
2023-04-04T09:37:08.980Z,1.70
2023-04-04T09:39:38.929Z,1.90
2023-04-04T09:42:06.863Z,1.70
2023-04-04T09:44:33.519Z,2.10
2023-04-04T09:47:30.756Z,1.90
2023-04-04T09:49:58.589Z,1.88
2023-04-04T09:52:24.992Z,1.63
2023-04-04T09:54:58.608Z,1.70
2023-04-04T09:57:35.439Z,2.00
2023-04-04T10:00:05.397Z,1.30
2023-04-04T10:02:31.846Z,1.30
2023-04-04T10:05:05.917Z,1.63
2023-04-04T10:07:33.056Z,2.17
2023-04-04T10:10:04.880Z,1.40
2023-04-04T10:12:31.392Z,1.45
2023-04-04T10:14:59.192Z,1.98
2023-04-04T10:17:47.442Z,1.88
2023-04-04T10:20:14.723Z,1.92
2023-04-04T10:22:43.036Z,2.33
2023-04-04T10:25:10.750Z,1.90
2023-04-04T10:27:37.099Z,2.20
2023-04-04T10:30:03.631Z,2.20
2023-04-04T10:32:33.036Z,1.35
2023-04-04T10:35:05.286Z,1.52
2023-04-04T10:37:43.486Z,1.90
2023-04-04T10:40:18.629Z,2.05
2023-04-04T10:42:47.472Z,2.13
2023-04-04T10:45:21.264Z,1.92
2023-04-04T10:47:48.531Z,1.90
2023-04-04T10:50:14.954Z,1.90
2023-04-04T10:52:43.921Z,1.27
2023-04-04T10:55:14.720Z,2.20
2023-04-04T10:57:43.876Z,1.75
2023-04-04T11:00:13.416Z,2.20
2023-04-04T11:02:57.140Z,2.58
2023-04-04T11:05:33.508Z,1.88
2023-04-04T11:08:08.689Z,2.40
2023-04-04T11:10:43.477Z,2.10
2023-04-04T11:13:34.129Z,2.03
2023-04-04T11:16:26.873Z,1.45
2023-04-04T11:18:59.712Z,2.10
2023-04-04T11:21:32.168Z,2.38
2023-04-04T11:23:58.479Z,2.10
2023-04-04T11:26:27.948Z,2.13
2023-04-04T11:28:58.580Z,2.63
2023-04-04T11:31:26.505Z,2.38
2023-04-04T11:34:13.099Z,2.40
2023-04-04T11:36:39.385Z,1.73
2023-04-04T11:39:18.086Z,2.03
2023-04-04T11:42:01.798Z,2.13
2023-04-04T11:44:28.221Z,2.63
2023-04-04T11:47:02.732Z,1.58
2023-04-04T11:49:30.277Z,2.20
2023-04-04T11:51:57.363Z,1.83
2023-04-04T11:54:24.312Z,1.90
2023-04-04T11:56:51.353Z,2.40
2023-04-04T11:59:19.940Z,2.20
2023-04-04T12:01:46.527Z,2.38
2023-04-04T12:04:17.365Z,2.17
2023-04-04T12:06:43.888Z,2.25
2023-04-04T12:09:10.952Z,2.40
2023-04-04T12:11:37.729Z,2.22
2023-04-04T12:14:04.294Z,2.67
2023-04-04T12:16:30.681Z,2.17
2023-04-04T12:19:01.366Z,2.42
2023-04-04T12:21:30.776Z,2.50
2023-04-04T12:23:57.216Z,2.33
2023-04-04T12:26:24.018Z,2.13
2023-04-04T12:28:50.730Z,1.90
2023-04-04T12:31:17.370Z,2.20
2023-04-04T12:33:43.912Z,2.50
2023-04-04T12:36:12.620Z,2.30
2023-04-04T12:39:01.501Z,2.50
2023-04-04T12:41:28.614Z,2.47
2023-04-04T12:44:05.699Z,2.45
2023-04-04T12:46:36.280Z,2.47
2023-04-04T12:49:03.566Z,2.20
2023-04-04T12:51:35.222Z,2.20
2023-04-04T12:54:04.106Z,2.90
2023-04-04T12:56:31.796Z,2.03
2023-04-04T12:59:02.184Z,2.40
2023-04-04T13:01:33.136Z,1.45
2023-04-04T13:04:03.458Z,1.63
2023-04-04T13:06:32.164Z,2.22
2023-04-04T13:08:59.117Z,2.15
2023-04-04T13:11:25.781Z,2.50
2023-04-04T13:14:02.655Z,1.80
2023-04-04T13:16:36.103Z,2.30
2023-04-04T13:19:03.392Z,1.90
2023-04-04T13:21:30.607Z,2.22
2023-04-04T13:23:57.274Z,2.65
2023-04-04T13:26:23.586Z,2.05
2023-04-04T13:28:50.075Z,2.35
2023-04-04T13:31:16.611Z,2.45
2023-04-04T13:33:43.102Z,2.50
2023-04-04T13:36:09.428Z,2.28
2023-04-04T13:38:35.873Z,2.35
2023-04-04T13:41:02.217Z,2.20
2023-04-04T13:43:28.539Z,1.42
2023-04-04T13:45:54.912Z,1.85
2023-04-04T13:48:21.365Z,2.20
2023-04-04T13:50:47.832Z,1.95
2023-04-04T13:53:14.172Z,1.55
2023-04-04T13:55:51.981Z,2.45
2023-04-04T13:58:26.921Z,1.67
2023-04-04T14:00:53.343Z,2.28
2023-04-04T14:03:19.828Z,2.58
2023-04-04T14:05:46.257Z,2.58
2023-04-04T14:08:12.612Z,2.10
2023-04-04T14:10:38.978Z,2.25
2023-04-04T14:13:05.305Z,2.40
2023-04-04T14:15:31.924Z,2.20
2023-04-04T14:17:58.406Z,2.28
2023-04-04T14:20:24.818Z,1.77
2023-04-04T14:22:51.186Z,1.42
2023-04-04T14:25:17.600Z,1.98
2023-04-04T14:27:44.208Z,2.50
2023-04-04T14:30:10.999Z,2.08
2023-04-04T14:32:37.363Z,2.58
2023-04-04T14:35:03.917Z,2.13
2023-04-04T14:37:30.278Z,2.47
2023-04-04T14:39:56.643Z,2.63
2023-04-04T14:42:23.048Z,2.20
2023-04-04T14:44:49.394Z,2.22
2023-04-04T14:47:15.839Z,2.70
2023-04-04T14:49:42.262Z,2.40
2023-04-04T14:52:08.652Z,2.13
2023-04-04T14:54:35.094Z,2.33
2023-04-04T14:57:02.107Z,2.45
2023-04-04T14:59:28.663Z,2.90
2023-04-04T15:01:55.203Z,2.67
2023-04-04T15:04:21.552Z,2.50
2023-04-04T15:06:47.911Z,2.22
2023-04-04T15:09:15.527Z,2.40
2023-04-04T15:11:41.951Z,2.35
2023-04-04T15:14:08.317Z,2.70
2023-04-04T15:16:34.729Z,2.75
2023-04-04T15:19:01.512Z,2.60
2023-04-04T15:21:28.620Z,2.67
2023-04-04T15:23:55.429Z,2.50
2023-04-04T15:26:21.842Z,2.60
2023-04-04T15:28:48.240Z,2.53
2023-04-04T15:31:14.792Z,2.10
2023-04-04T15:33:41.136Z,3.03
2023-04-04T15:36:07.568Z,2.85
2023-04-04T15:38:33.849Z,2.58
2023-04-04T15:41:00.203Z,2.38
2023-04-04T15:43:26.527Z,2.47
2023-04-04T15:45:52.950Z,2.53
2023-04-04T15:48:19.306Z,2.15
2023-04-04T15:50:45.612Z,1.88
2023-04-04T15:53:11.938Z,2.30
2023-04-04T15:55:38.335Z,2.45
2023-04-04T15:58:04.729Z,2.00
2023-04-04T16:00:31.088Z,2.55
2023-04-04T16:02:58.340Z,2.33
2023-04-04T16:05:25.178Z,2.60
2023-04-04T16:07:51.512Z,1.88
2023-04-04T16:10:17.992Z,2.00
2023-04-04T16:12:44.357Z,2.47
2023-04-04T16:15:10.941Z,2.60
2023-04-04T16:17:37.332Z,1.88
2023-04-04T16:20:05.463Z,2.38
2023-04-04T16:22:31.802Z,1.60
2023-04-04T16:24:58.226Z,1.83
2023-04-04T16:27:24.571Z,2.20
2023-04-04T16:29:50.898Z,1.73
2023-04-04T16:32:17.265Z,2.80
2023-04-04T16:34:43.623Z,2.47
2023-04-04T16:37:09.960Z,2.13
2023-04-04T16:39:36.319Z,2.25
2023-04-04T16:42:02.732Z,2.10
2023-04-04T16:44:29.091Z,2.40
2023-04-04T16:46:55.549Z,2.72
2023-04-04T16:49:22.023Z,2.33
2023-04-04T16:51:48.398Z,2.30
2023-04-04T16:54:14.751Z,2.40
2023-04-04T16:56:41.278Z,2.58
2023-04-04T16:59:07.657Z,1.85
2023-04-04T17:01:34.167Z,2.30
2023-04-04T17:04:00.634Z,1.95
2023-04-04T17:06:26.982Z,2.50
2023-04-04T17:08:53.316Z,2.75
2023-04-04T17:11:19.707Z,2.40
2023-04-04T17:13:46.074Z,2.65
2023-04-04T17:16:12.501Z,2.72
2023-04-04T17:18:38.914Z,2.60
2023-04-04T17:21:05.434Z,2.60
2023-04-04T17:23:31.935Z,2.75
2023-04-04T17:25:58.331Z,2.80
2023-04-04T17:28:24.724Z,2.78
2023-04-04T17:30:51.123Z,2.60
2023-04-04T17:33:17.452Z,3.25
2023-04-04T17:35:43.767Z,2.97
2023-04-04T17:38:10.138Z,2.60
2023-04-04T17:40:36.512Z,2.55
2023-04-04T17:43:02.854Z,3.10
2023-04-04T17:45:29.325Z,3.17
2023-04-04T17:47:55.758Z,2.90
2023-04-04T17:50:22.195Z,3.22
2023-04-04T17:52:48.539Z,3.42
2023-04-04T17:55:15.850Z,2.90
2023-04-04T17:57:42.292Z,2.80
2023-04-04T18:00:09.263Z,2.63
2023-04-04T18:02:35.719Z,2.58
2023-04-04T18:05:02.522Z,3.10
2023-04-04T18:07:28.869Z,3.17
2023-04-04T18:09:55.231Z,3.00
2023-04-04T18:12:21.599Z,3.10
2023-04-04T18:14:48.555Z,2.97
2023-04-04T18:17:14.892Z,3.08
2023-04-04T18:19:41.230Z,3.17
2023-04-04T18:22:07.768Z,3.40
2023-04-04T18:24:34.134Z,2.95
2023-04-04T18:27:00.465Z,2.88
2023-04-04T18:29:26.868Z,3.03
2023-04-04T18:31:53.439Z,3.60
2023-04-04T18:34:19.769Z,3.10
2023-04-04T18:36:48.772Z,2.72
2023-04-04T18:39:15.717Z,2.97
2023-04-04T18:41:42.132Z,2.88
2023-04-04T18:44:09.732Z,2.97
2023-04-04T18:46:36.141Z,3.05
2023-04-04T18:49:02.481Z,3.10
2023-04-04T18:51:28.825Z,2.78
2023-04-04T18:53:55.190Z,3.70
2023-04-04T18:56:21.581Z,3.33
2023-04-04T18:58:48.907Z,3.10
2023-04-04T19:01:15.375Z,3.25
2023-04-04T19:03:43.490Z,3.00
2023-04-04T19:06:13.721Z,3.63
2023-04-04T19:08:41.623Z,3.40
2023-04-04T19:11:08.855Z,3.25
2023-04-04T19:13:35.754Z,3.78
2023-04-04T19:16:02.667Z,3.63
2023-04-04T19:18:29.073Z,3.42
2023-04-04T19:20:55.392Z,3.47
2023-04-04T19:23:22.078Z,3.83
2023-04-04T19:25:48.433Z,3.15
2023-04-04T19:28:14.809Z,3.65
2023-04-04T19:30:45.434Z,3.60
2023-04-04T19:33:13.433Z,3.13
2023-04-04T19:36:08.282Z,3.33
2023-04-04T19:38:40.001Z,3.10
2023-04-04T19:41:25.816Z,3.30
2023-04-04T19:43:52.225Z,3.25
2023-04-04T19:46:26.881Z,3.70
2023-04-04T19:48:54.160Z,3.50
2023-04-04T19:51:20.412Z,3.00
2023-04-04T19:56:16.546Z,3.08
2023-04-04T19:58:43.649Z,3.47
2023-04-04T20:01:11.725Z,4.10
2023-04-04T20:03:39.815Z,3.22
2023-04-04T20:06:18.049Z,3.33
2023-04-04T20:08:45.793Z,3.13
2023-04-04T20:11:12.897Z,3.40
2023-04-04T20:13:40.656Z,3.35
2023-04-04T20:16:11.628Z,3.28
2023-04-04T20:18:39.323Z,3.28
2023-04-04T20:21:19.342Z,3.88
2023-04-04T20:23:51.784Z,4.07
2023-04-04T20:26:55.258Z,4.25
2023-04-04T20:29:25.583Z,4.18
2023-04-04T20:32:03.813Z,3.90
2023-04-04T20:37:09.356Z,3.88
2023-04-04T20:39:46.044Z,4.22
2023-04-04T20:42:27.738Z,3.97
2023-04-04T20:44:55.399Z,4.32
2023-04-04T20:47:27.912Z,4.53
2023-04-04T20:49:54.316Z,3.45
2023-04-04T20:54:50.065Z,3.90
2023-04-04T20:59:48.344Z,3.35
2023-04-04T21:02:16.625Z,3.88
2023-04-04T21:04:44.702Z,3.60
2023-04-04T21:07:33.969Z,3.63
2023-04-04T21:10:01.443Z,3.42
2023-04-04T21:12:27.963Z,3.42
2023-04-04T21:14:54.619Z,3.55
2023-04-04T21:17:20.972Z,3.33
2023-04-04T21:22:13.888Z,3.35
2023-04-04T21:24:40.202Z,3.22
2023-04-04T21:29:33.035Z,3.42
2023-04-04T21:31:59.494Z,3.22
2023-04-04T21:34:27.330Z,3.30
2023-04-04T21:37:01.094Z,3.10
2023-04-04T21:39:31.323Z,3.10
2023-04-04T21:42:07.879Z,3.17
2023-04-04T21:44:35.051Z,3.88
2023-04-04T21:49:28.699Z,3.53
2023-04-04T21:51:55.087Z,3.15
2023-04-04T21:56:47.658Z,3.40
2023-04-04T21:59:14.127Z,3.20
2023-04-04T22:01:40.866Z,3.30
2023-04-04T22:04:07.945Z,3.42
2023-04-04T22:06:34.821Z,3.40
2023-04-04T22:09:01.148Z,3.50
2023-04-04T22:11:28.018Z,3.15
2023-04-04T22:13:55.460Z,3.60
2023-04-04T22:16:21.839Z,3.70
2023-04-04T22:18:49.740Z,3.13
2023-04-04T22:21:16.112Z,3.88
2023-04-04T22:26:11.487Z,3.63
2023-04-04T22:28:38.304Z,3.00
2023-04-04T22:31:05.581Z,3.47
2023-04-04T22:33:32.326Z,3.83
2023-04-04T22:35:58.691Z,3.85
2023-04-04T22:40:52.136Z,3.35
2023-04-04T22:43:19.318Z,3.45
2023-04-04T22:45:45.768Z,3.53
2023-04-04T22:48:12.638Z,3.70
2023-04-04T22:50:39.178Z,3.83
2023-04-04T22:53:05.837Z,3.70
2023-04-04T22:55:32.246Z,3.22
2023-04-04T23:00:24.816Z,3.42
2023-04-04T23:05:18.687Z,3.35
2023-04-04T23:07:45.515Z,3.70
2023-04-04T23:10:14.065Z,3.45
2023-04-04T23:12:40.645Z,3.63
2023-04-04T23:15:07.861Z,4.00
2023-04-04T23:17:36.026Z,3.78
2023-04-04T23:20:02.753Z,3.63
2023-04-04T23:22:29.121Z,3.88
2023-04-04T23:24:55.487Z,3.83
2023-04-04T23:29:48.500Z,3.65
2023-04-04T23:32:14.803Z,3.22
2023-04-04T23:34:41.190Z,3.25
2023-04-04T23:39:33.852Z,3.40
2023-04-04T23:44:26.536Z,3.10
2023-04-04T23:49:19.418Z,3.80
2023-04-04T23:51:45.882Z,3.33
2023-04-04T23:54:13.041Z,4.30
2023-04-04T23:56:40.290Z,3.47
2023-04-04T23:59:06.955Z,3.90
